Time;durP1;ratioP1;P1;durP2;ratioP2;P2;SDS_P1;SDS_P2;PMS_P1;PMS_P2;Temp;Humidity;BMP_temperature;BMP_pressure;BME280_temperature;BME280_humidity;BME280_pressure;Samples;Min_cycle;Max_cycle;Signal;HPM_P1;HPM_P2
2021/07/03 00:01:15;;;;;;;21.58;13.45;;;;;;;16.27;81.54;101350.28;5046819;28;20045;-66
2021/07/03 00:03:42;;;;;;;26.88;15.30;;;;;;;16.18;81.76;101351.44;5031859;28;20053;-67
2021/07/03 00:06:09;;;;;;;21.67;14.68;;;;;;;16.08;82.19;101353.53;5030590;28;20137;-66
2021/07/03 00:08:37;;;;;;;24.33;16.45;;;;;;;16.09;82.51;101352.63;5030987;28;20053;-66
2021/07/03 00:11:05;;;;;;;24.65;16.80;;;;;;;16.10;83.30;101349.09;5042412;28;20052;-65
2021/07/03 00:13:32;;;;;;;24.40;15.30;;;;;;;16.06;83.23;101346.63;5041948;28;20045;-67
2021/07/03 00:15:59;;;;;;;26.33;15.98;;;;;;;16.04;82.81;101349.28;5043096;28;20052;-66
2021/07/03 00:18:25;;;;;;;26.35;16.70;;;;;;;16.03;82.44;101352.81;5050394;28;20049;-66
2021/07/03 00:20:52;;;;;;;24.27;14.50;;;;;;;15.98;83.03;101344.22;5032750;28;20050;-65
2021/07/03 00:23:18;;;;;;;21.98;14.45;;;;;;;15.96;82.92;101346.91;5031003;28;20053;-66
2021/07/03 00:25:46;;;;;;;20.52;14.88;;;;;;;15.93;83.00;101356.63;5030974;28;20104;-65
2021/07/03 00:28:13;;;;;;;24.05;15.35;;;;;;;15.94;83.06;101360.97;5032053;28;20072;-66
2021/07/03 00:30:39;;;;;;;23.80;15.13;;;;;;;15.91;83.00;101353.22;5031465;28;20056;-65
2021/07/03 00:33:06;;;;;;;25.00;15.40;;;;;;;15.79;83.16;101359.66;5031049;28;20060;-65
2021/07/03 00:35:32;;;;;;;22.02;14.65;;;;;;;15.80;83.38;101364.00;5033644;28;20054;-66
2021/07/03 00:37:59;;;;;;;23.88;15.82;;;;;;;15.79;82.98;101360.53;5033131;28;20462;-65
2021/07/03 00:40:25;;;;;;;22.25;15.50;;;;;;;15.77;82.80;101364.94;5044178;28;20044;-65
2021/07/03 00:42:53;;;;;;;23.38;15.05;;;;;;;15.76;82.96;101355.38;5053402;28;20071;-67
2021/07/03 00:45:19;;;;;;;19.90;14.35;;;;;;;15.72;83.36;101364.25;5049594;28;20402;-66
2021/07/03 00:47:46;;;;;;;22.27;15.50;;;;;;;15.68;83.51;101362.63;5053700;28;20076;-66
2021/07/03 00:50:13;;;;;;;22.15;14.27;;;;;;;15.73;83.42;101359.84;5041273;28;20049;-66
2021/07/03 00:52:42;;;;;;;25.20;15.13;;;;;;;15.70;83.63;101363.44;5053606;28;20461;-66
2021/07/03 00:55:10;;;;;;;18.67;13.57;;;;;;;15.72;83.25;101359.00;5053797;28;20056;-66
2021/07/03 00:57:37;;;;;;;19.20;13.68;;;;;;;15.70;83.31;101358.19;5036260;28;20045;-66
2021/07/03 01:00:07;;;;;;;21.17;14.88;;;;;;;15.67;83.16;101361.75;5034097;28;20392;-66
2021/07/03 01:02:33;;;;;;;22.23;14.52;;;;;;;15.63;83.46;101354.88;5049422;28;20054;-66
2021/07/03 01:05:00;;;;;;;23.13;15.05;;;;;;;15.63;83.08;101362.75;5042383;28;20470;-65
2021/07/03 01:07:26;;;;;;;19.70;13.00;;;;;;;15.63;83.00;101362.75;5034447;28;20050;-66
2021/07/03 01:09:53;;;;;;;20.05;12.82;;;;;;;15.55;83.29;101356.91;5053374;28;20052;-66
2021/07/03 01:12:20;;;;;;;22.70;13.00;;;;;;;15.46;83.77;101358.00;5053572;28;20056;-66
2021/07/03 01:14:48;;;;;;;20.73;13.73;;;;;;;15.43;83.46;101352.84;5046081;28;20057;-66
2021/07/03 01:17:17;;;;;;;17.98;12.32;;;;;;;15.38;83.78;101350.38;5044627;28;20501;-66
2021/07/03 01:19:44;;;;;;;18.33;13.18;;;;;;;15.45;83.27;101351.06;5044999;28;20403;-66
2021/07/03 01:22:13;;;;;;;20.65;13.60;;;;;;;15.44;83.41;101351.94;5033554;28;20568;-66
2021/07/03 01:24:41;;;;;;;23.55;15.73;;;;;;;15.41;83.56;101359.06;5036416;28;20055;-65
2021/07/03 01:27:08;;;;;;;21.98;14.73;;;;;;;15.40;83.78;101352.97;5052814;28;20045;-65
2021/07/03 01:29:35;;;;;;;25.15;15.30;;;;;;;15.40;83.88;101350.34;5043771;28;20037;-66
2021/07/03 01:32:03;;;;;;;23.65;15.27;;;;;;;15.39;84.39;101348.63;5054475;28;20057;-65
2021/07/03 01:34:31;;;;;;;24.65;15.93;;;;;;;15.32;84.72;101349.72;5047416;28;20125;-65
2021/07/03 01:36:58;;;;;;;28.35;15.18;;;;;;;15.28;84.82;101348.91;5047698;28;20056;-65
2021/07/03 01:39:27;;;;;;;23.83;15.90;;;;;;;15.26;85.18;101356.00;5033453;28;20053;-65
2021/07/03 01:41:53;;;;;;;21.27;14.63;;;;;;;15.27;85.07;101346.34;5037745;28;20131;-65
2021/07/03 01:44:24;;;;;;;21.10;14.88;;;;;;;15.26;84.98;101357.75;5039975;28;20060;-64
2021/07/03 01:46:51;;;;;;;24.42;14.57;;;;;;;15.26;85.73;101353.38;5033132;28;20521;-65
2021/07/03 01:49:17;;;;;;;23.50;14.68;;;;;;;15.30;85.03;101346.28;5033294;28;20053;-65
2021/07/03 01:51:44;;;;;;;25.65;15.63;;;;;;;15.30;84.51;101341.03;5033352;28;20092;-66
2021/07/03 01:54:10;;;;;;;21.65;13.95;;;;;;;15.25;84.67;101351.66;5052835;28;20053;-66
2021/07/03 01:56:41;;;;;;;16.88;12.57;;;;;;;15.24;84.93;101349.94;5037427;28;20041;-66
2021/07/03 01:59:07;;;;;;;22.17;14.63;;;;;;;15.20;84.79;101354.41;5039572;28;20128;-66
2021/07/03 02:01:34;;;;;;;19.13;13.48;;;;;;;15.21;84.68;101350.00;5054463;28;20048;-65
2021/07/03 02:04:01;;;;;;;22.10;13.80;;;;;;;15.14;84.33;101354.56;5050311;28;20041;-65
2021/07/03 02:06:27;;;;;;;18.13;13.57;;;;;;;15.20;84.42;101356.16;5032537;28;20046;-65
2021/07/03 02:08:54;;;;;;;18.88;13.98;;;;;;;15.21;84.47;101358.75;5034356;28;20053;-65
2021/07/03 02:11:20;;;;;;;23.42;14.00;;;;;;;15.19;84.37;101360.53;5052068;28;20060;-66
2021/07/03 02:13:48;;;;;;;21.10;13.32;;;;;;;15.16;84.47;101350.16;5048915;28;20049;-65
2021/07/03 02:16:15;;;;;;;22.73;14.80;;;;;;;15.11;84.48;101346.81;5041931;28;20049;-66
2021/07/03 02:18:41;;;;;;;20.92;13.95;;;;;;;15.08;84.95;101349.50;5042979;28;20053;-65
2021/07/03 02:21:08;;;;;;;21.23;14.20;;;;;;;15.10;84.86;101352.94;5032281;28;20045;-66
2021/07/03 02:23:34;;;;;;;23.05;14.00;;;;;;;15.10;84.93;101349.44;5032134;28;20046;-66
2021/07/03 02:26:00;;;;;;;22.80;14.82;;;;;;;15.14;84.22;101353.72;5035153;28;20049;-65
2021/07/03 02:28:27;;;;;;;18.05;13.80;;;;;;;15.16;84.52;101357.16;5048654;28;20049;-65
2021/07/03 02:30:55;;;;;;;19.10;14.00;;;;;;;15.09;84.63;101348.59;5032414;28;20055;-65
2021/07/03 02:33:22;;;;;;;18.95;13.85;;;;;;;15.06;84.51;101353.94;5036060;28;20491;-64
2021/07/03 02:35:49;;;;;;;18.88;13.38;;;;;;;15.05;84.68;101358.31;5032367;28;20057;-65
2021/07/03 02:38:15;;;;;;;19.98;14.02;;;;;;;15.01;84.38;101366.31;5032003;28;20049;-66
2021/07/03 02:40:42;;;;;;;18.67;13.18;;;;;;;15.03;84.25;101361.88;5032141;28;20049;-65
2021/07/03 02:43:08;;;;;;;20.33;13.75;;;;;;;15.04;84.35;101358.34;5035963;28;20045;-65
2021/07/03 02:45:35;;;;;;;21.85;13.88;;;;;;;15.00;84.49;101357.56;5051703;28;20055;-65
2021/07/03 02:48:03;;;;;;;20.13;13.05;;;;;;;14.99;84.47;101358.47;5051561;28;20061;-63
2021/07/03 02:50:29;;;;;;;20.45;14.43;;;;;;;14.95;84.25;101350.75;5045780;28;20068;-65
2021/07/03 02:52:56;;;;;;;20.67;12.60;;;;;;;14.92;84.80;101349.06;5035404;28;20064;-65
2021/07/03 02:55:22;;;;;;;20.48;14.30;;;;;;;14.90;84.67;101351.75;5038109;28;20053;-65
2021/07/03 02:57:48;;;;;;;19.60;13.20;;;;;;;14.88;84.27;101344.81;5032919;28;20115;-65
2021/07/03 03:00:17;;;;;;;21.10;13.82;;;;;;;14.86;84.24;101349.25;5032342;28;20532;-65
2021/07/03 03:02:44;;;;;;;19.80;13.65;;;;;;;14.85;84.24;101348.38;5031833;28;20064;-65
2021/07/03 03:05:13;;;;;;;25.20;14.73;;;;;;;14.79;84.33;101345.94;5030991;28;20065;-65
2021/07/03 03:07:41;;;;;;;21.83;14.80;;;;;;;14.77;84.75;101342.50;5042058;28;20057;-65
2021/07/03 03:10:10;;;;;;;21.77;14.18;;;;;;;14.74;85.11;101332.09;5049644;28;20055;-66
2021/07/03 03:12:36;;;;;;;25.52;14.45;;;;;;;14.68;84.93;101335.72;5041593;28;20049;-65
2021/07/03 03:15:03;;;;;;;20.38;13.27;;;;;;;14.65;85.35;101333.19;5031168;28;20050;-65
2021/07/03 03:17:30;;;;;;;23.80;15.68;;;;;;;14.61;85.55;101337.66;5041868;28;20095;-66
2021/07/03 03:19:56;;;;;;;23.58;14.32;;;;;;;14.63;85.33;101332.38;5034839;28;20061;-65
2021/07/03 03:22:24;;;;;;;22.02;14.73;;;;;;;14.62;85.22;101328.88;5031340;28;20065;-65
2021/07/03 03:24:51;;;;;;;22.48;13.35;;;;;;;14.64;85.00;101335.81;5042646;28;20402;-65
2021/07/03 03:27:17;;;;;;;23.25;14.38;;;;;;;14.64;85.13;101326.22;5030105;28;20426;-65
2021/07/03 03:29:44;;;;;;;21.88;14.57;;;;;;;14.56;85.51;101329.03;5045628;28;20053;-64
2021/07/03 03:32:10;;;;;;;23.38;14.95;;;;;;;14.58;85.49;101329.00;5050987;28;20102;-65
2021/07/03 03:34:36;;;;;;;28.33;14.65;;;;;;;14.53;85.67;101323.88;5050311;28;20115;-66
2021/07/03 03:37:03;;;;;;;23.83;14.70;;;;;;;14.53;85.97;101318.63;5051045;28;20053;-65
2021/07/03 03:39:31;;;;;;;22.05;14.10;;;;;;;14.53;85.75;101310.78;5035768;28;20057;-65
2021/07/03 03:41:58;;;;;;;25.58;15.07;;;;;;;14.54;85.93;101309.03;5050087;28;20045;-65
2021/07/03 03:44:24;;;;;;;25.35;14.48;;;;;;;14.45;85.87;101310.13;5030962;28;20049;-65
2021/07/03 03:46:52;;;;;;;21.35;14.38;;;;;;;14.47;86.25;101305.72;5031002;28;20060;-65
2021/07/03 03:49:19;;;;;;;27.02;14.95;;;;;;;14.53;86.33;101302.09;5031223;28;20506;-64
2021/07/03 03:51:46;;;;;;;25.42;14.45;;;;;;;14.64;85.86;101304.41;5039885;28;20099;-66
2021/07/03 03:54:13;;;;;;;27.88;16.38;;;;;;;14.69;85.81;101298.19;5051076;28;20053;-66
2021/07/03 03:56:40;;;;;;;22.25;15.82;;;;;;;14.79;85.55;101298.78;5048762;28;20045;-67
2021/07/03 03:59:07;;;;;;;24.50;16.17;;;;;;;14.85;85.62;101298.63;5032752;28;20658;-66
2021/07/03 04:01:33;;;;;;;23.95;16.05;;;;;;;14.99;85.09;101292.97;5031078;28;20055;-66
2021/07/03 04:04:00;;;;;;;23.55;16.30;;;;;;;15.08;85.32;101300.56;5031285;28;20045;-65
2021/07/03 04:06:26;;;;;;;28.45;17.45;;;;;;;15.18;85.00;101292.44;5031282;28;20711;-65
2021/07/03 04:08:53;;;;;;;26.83;17.98;;;;;;;15.27;84.59;101294.81;5040713;28;20056;-65
2021/07/03 04:11:19;;;;;;;23.65;16.58;;;;;;;15.39;84.44;101294.41;5051019;28;20056;-66
2021/07/03 04:13:47;;;;;;;22.85;15.60;;;;;;;15.55;84.00;101294.81;5037659;28;20546;-65
2021/07/03 04:16:14;;;;;;;30.55;17.15;;;;;;;15.69;83.32;101301.41;5050019;28;20513;-65
2021/07/03 04:18:40;;;;;;;20.80;15.23;;;;;;;15.77;82.99;101294.13;5046463;28;20053;-65
2021/07/03 04:21:06;;;;;;;32.28;17.48;;;;;;;15.78;82.74;101295.84;5047705;28;20049;-65
2021/07/03 04:23:33;;;;;;;27.20;17.05;;;;;;;15.80;82.56;101285.31;5054418;28;20056;-65
2021/07/03 04:25:59;;;;;;;28.35;18.15;;;;;;;15.84;82.27;101290.44;5053888;28;20048;-65
2021/07/03 04:28:26;;;;;;;24.40;16.30;;;;;;;15.85;82.28;101286.91;5050603;28;20448;-66
2021/07/03 04:30:54;;;;;;;26.10;17.35;;;;;;;15.93;82.10;101299.78;5034128;28;20064;-65
2021/07/03 04:33:20;;;;;;;23.77;16.45;;;;;;;15.94;81.68;101290.13;5037918;28;20049;-65
2021/07/03 04:35:46;;;;;;;26.58;16.05;;;;;;;16.01;81.39;101289.03;5034714;28;20045;-65
2021/07/03 04:38:13;;;;;;;27.20;16.80;;;;;;;16.05;81.28;101289.78;5033902;28;20056;-65
2021/07/03 04:40:39;;;;;;;26.73;17.10;;;;;;;16.12;81.18;101291.28;5034053;28;20446;-65
2021/07/03 04:43:06;;;;;;;23.20;17.13;;;;;;;16.27;81.22;101287.28;5045057;28;20057;-66
2021/07/03 04:45:32;;;;;;;23.77;15.77;;;;;;;16.31;80.63;101276.63;5034002;28;20061;-66
2021/07/03 04:48:00;;;;;;;28.77;17.02;;;;;;;16.41;80.10;101289.44;5034581;28;20052;-65
2021/07/03 04:50:26;;;;;;;23.83;16.40;;;;;;;16.60;80.04;101287.03;5036993;28;20049;-65
2021/07/03 04:52:53;;;;;;;24.05;15.40;;;;;;;16.78;79.19;101293.38;5034068;28;20053;-66
2021/07/03 04:55:19;;;;;;;24.55;16.48;;;;;;;16.93;78.96;101286.69;5038808;28;20040;-65
2021/07/03 04:57:45;;;;;;;21.13;15.75;;;;;;;17.07;78.25;101288.84;5035016;28;20049;-66
2021/07/03 05:00:13;;;;;;;25.15;15.05;;;;;;;17.34;78.06;101283.47;5046552;28;20053;-65
2021/07/03 05:02:40;;;;;;;21.38;15.63;;;;;;;17.38;77.66;101292.91;5054090;28;20056;-66
2021/07/03 05:05:08;;;;;;;27.58;16.23;;;;;;;17.23;77.85;101289.97;5036616;28;20127;-66
2021/07/03 05:07:35;;;;;;;21.25;14.35;;;;;;;17.25;78.36;101289.91;5052177;28;20056;-65
2021/07/03 05:10:01;;;;;;;25.65;16.33;;;;;;;17.34;78.17;101286.09;5053704;28;20109;-66
2021/07/03 05:12:28;;;;;;;24.38;14.50;;;;;;;17.48;77.89;101296.06;5052967;28;20041;-66
2021/07/03 05:14:54;;;;;;;24.40;15.35;;;;;;;17.55;77.87;101295.78;5034243;28;20415;-66
2021/07/03 05:17:21;;;;;;;21.95;15.10;;;;;;;17.52;77.65;101289.75;5047190;28;20045;-66
2021/07/03 05:19:47;;;;;;;22.38;15.40;;;;;;;17.43;77.39;101301.50;5041171;28;20071;-66
2021/07/03 05:22:15;;;;;;;26.13;15.20;;;;;;;17.42;77.74;101296.31;5042042;28;20045;-66
2021/07/03 05:24:41;;;;;;;21.52;15.05;;;;;;;17.36;77.74;101300.03;5052596;28;20485;-66
2021/07/03 05:27:08;;;;;;;23.17;16.13;;;;;;;17.29;78.01;101302.03;5048047;28;20045;-67
2021/07/03 05:29:34;;;;;;;27.30;15.45;;;;;;;17.42;78.62;101299.78;5052922;28;20064;-66
2021/07/03 05:32:01;;;;;;;26.40;15.32;;;;;;;17.61;78.21;101294.66;5053387;28;20049;-66
2021/07/03 05:34:27;;;;;;;22.75;15.27;;;;;;;17.88;77.14;101300.56;5046521;28;20068;-66
2021/07/03 05:36:54;;;;;;;20.35;13.88;;;;;;;18.17;76.29;101303.78;5033541;28;20513;-65
2021/07/03 05:39:21;;;;;;;19.02;14.07;;;;;;;18.46;75.65;101304.34;5032959;28;20522;-66
2021/07/03 05:41:48;;;;;;;25.25;15.05;;;;;;;18.63;75.50;101308.03;5052408;28;20529;-66
2021/07/03 05:44:14;;;;;;;21.13;14.90;;;;;;;18.80;74.47;101307.28;5033786;28;20088;-66
2021/07/03 05:46:42;;;;;;;25.13;14.85;;;;;;;19.08;73.37;101311.31;5032706;28;20061;-66
2021/07/03 05:49:08;;;;;;;20.77;14.73;;;;;;;19.29;72.33;101300.72;5033030;28;20091;-66
2021/07/03 05:51:36;;;;;;;23.02;15.02;;;;;;;19.50;70.85;101306.72;5047582;28;20048;-66
2021/07/03 05:54:03;;;;;;;21.48;14.32;;;;;;;19.81;71.17;101308.78;5032617;28;20092;-66
2021/07/03 05:56:31;;;;;;;21.15;14.65;;;;;;;20.07;70.53;101301.34;5046832;28;20049;-65
2021/07/03 05:58:57;;;;;;;22.83;15.07;;;;;;;20.27;69.54;101296.84;5036618;28;20056;-66
2021/07/03 06:01:24;;;;;;;20.27;13.35;;;;;;;20.65;68.63;101294.00;5032824;28;20057;-66
2021/07/03 06:03:51;;;;;;;20.05;12.55;;;;;;;20.92;68.67;101293.47;5033634;28;20053;-66
2021/07/03 06:06:17;;;;;;;16.08;12.70;;;;;;;21.05;66.80;101291.03;5034102;28;20053;-66
2021/07/03 06:08:44;;;;;;;25.00;14.60;;;;;;;20.99;68.04;101299.28;5050015;28;20072;-66
2021/07/03 06:11:12;;;;;;;25.25;14.57;;;;;;;21.00;67.65;101301.00;5052515;28;20132;-66
2021/07/03 06:13:40;;;;;;;20.23;13.70;;;;;;;21.14;66.90;101295.81;5050678;28;20516;-66
2021/07/03 06:16:07;;;;;;;21.58;13.20;;;;;;;21.40;66.99;101288.22;5051951;28;20040;-67
2021/07/03 06:18:33;;;;;;;21.98;13.30;;;;;;;21.64;65.76;101279.88;5049307;28;20056;-66
2021/07/03 06:21:01;;;;;;;17.60;13.38;;;;;;;21.88;65.13;101278.44;5041203;28;20049;-66
2021/07/03 06:23:28;;;;;;;21.63;13.65;;;;;;;21.92;64.50;101283.56;5032634;28;20057;-65
2021/07/03 06:25:54;;;;;;;24.33;11.50;;;;;;;21.81;63.74;101284.19;5050252;28;20049;-63
2021/07/03 06:28:21;;;;;;;20.98;12.55;;;;;;;21.54;63.73;101283.00;5034576;28;20053;-65
2021/07/03 06:30:49;;;;;;;18.35;12.07;;;;;;;21.33;65.34;101286.84;5047181;28;20060;-65
2021/07/03 06:33:15;;;;;;;20.55;13.27;;;;;;;21.00;66.10;101283.34;5051855;28;20049;-65
2021/07/03 06:35:42;;;;;;;19.90;11.95;;;;;;;20.92;67.34;101282.91;5034302;28;20384;-66
2021/07/03 06:38:08;;;;;;;22.33;12.50;;;;;;;20.98;67.25;101287.88;5032304;28;20061;-65
2021/07/03 06:40:34;;;;;;;16.13;11.85;;;;;;;21.13;67.59;101278.25;5043141;28;20679;-64
2021/07/03 06:43:01;;;;;;;17.30;11.25;;;;;;;21.40;66.87;101282.91;5041193;28;20050;-66
2021/07/03 06:45:28;;;;;;;20.70;11.02;;;;;;;21.73;64.88;101277.53;5031764;28;20053;-66
2021/07/03 06:47:56;;;;;;;20.27;10.85;;;;;;;22.12;64.23;101277.06;5036761;28;20052;-65
2021/07/03 06:50:22;;;;;;;18.10;10.18;;;;;;;22.50;60.52;101273.97;5037293;28;20057;-66
2021/07/03 06:52:48;;;;;;;26.65;11.25;;;;;;;22.32;61.60;101271.44;5032197;28;20060;-66
2021/07/03 06:55:15;;;;;;;20.52;10.38;;;;;;;22.41;61.17;101271.88;5036078;28;20037;-66
2021/07/03 06:57:42;;;;;;;19.23;9.48;;;;;;;22.50;60.01;101277.44;5049755;28;20048;-66
2021/07/03 07:00:09;;;;;;;29.45;11.00;;;;;;;22.44;60.00;101277.84;5051164;28;20049;-66
2021/07/03 07:02:36;;;;;;;29.70;9.73;;;;;;;22.42;60.08;101277.06;5051670;28;20585;-66
2021/07/03 07:05:06;;;;;;;32.05;9.90;;;;;;;22.46;61.12;101277.72;5046179;28;20044;-65
2021/07/03 07:07:32;;;;;;;31.45;10.35;;;;;;;22.56;60.38;101276.22;5045522;28;20470;-66
2021/07/03 07:09:59;;;;;;;35.22;11.45;;;;;;;22.71;58.75;101276.22;5031782;28;20049;-66
2021/07/03 07:12:25;;;;;;;36.63;11.13;;;;;;;22.75;60.55;101275.94;5031458;28;20547;-66
2021/07/03 07:14:52;;;;;;;27.92;9.15;;;;;;;23.00;58.46;101281.50;5032630;28;20041;-65
2021/07/03 07:17:18;;;;;;;27.30;9.48;;;;;;;22.91;59.71;101281.13;5051214;28;20048;-65
2021/07/03 07:19:45;;;;;;;25.63;10.50;;;;;;;22.99;59.66;101275.34;5043268;28;20730;-65
2021/07/03 07:22:13;;;;;;;29.60;10.07;;;;;;;23.09;58.29;101265.00;5051025;28;20049;-65
2021/07/03 07:24:39;;;;;;;25.33;9.05;;;;;;;23.12;57.92;101270.09;5051243;28;20124;-65
2021/07/03 07:27:06;;;;;;;20.15;9.15;;;;;;;23.22;57.68;101267.75;5039333;28;20098;-66
2021/07/03 07:29:35;;;;;;;18.92;8.40;;;;;;;23.11;58.93;101263.06;5047415;28;20045;-66
2021/07/03 07:32:01;;;;;;;23.08;9.82;;;;;;;23.12;57.36;101259.47;5051503;28;20148;-66
2021/07/03 07:34:28;;;;;;;20.35;8.65;;;;;;;23.08;57.90;101255.34;5045123;28;20046;-66
2021/07/03 07:36:54;;;;;;;19.67;8.77;;;;;;;23.16;57.36;101250.38;5031195;28;20104;-64
2021/07/03 07:39:22;;;;;;;19.33;8.75;;;;;;;23.23;57.08;101261.50;5039588;28;20056;-65
2021/07/03 07:41:48;;;;;;;15.52;8.63;;;;;;;23.19;55.96;101250.22;5036583;28;20049;-65
2021/07/03 07:44:15;;;;;;;17.25;9.00;;;;;;;23.23;55.36;101254.38;5031635;28;20049;-64
2021/07/03 07:46:41;;;;;;;13.70;8.35;;;;;;;23.34;56.25;101255.47;5033175;28;20049;-64
2021/07/03 07:49:08;;;;;;;16.35;9.50;;;;;;;23.32;56.54;101249.41;5038624;28;20052;-65
2021/07/03 07:51:34;;;;;;;15.50;9.20;;;;;;;23.46;54.04;101252.03;5055344;28;20136;-65
2021/07/03 07:54:01;;;;;;;15.25;8.93;;;;;;;23.46;54.26;101238.75;5038311;28;20053;-65
2021/07/03 07:56:29;;;;;;;14.63;9.35;;;;;;;23.31;55.28;101248.56;5054560;28;20045;-64
2021/07/03 07:58:55;;;;;;;13.77;8.45;;;;;;;23.20;55.73;101241.31;5035523;28;20050;-65
2021/07/03 08:01:24;;;;;;;19.10;9.23;;;;;;;23.27;57.05;101245.28;5035184;28;20056;-65
2021/07/03 08:03:50;;;;;;;17.15;8.35;;;;;;;23.47;57.58;101235.16;5035268;28;20049;-64
2021/07/03 08:06:16;;;;;;;19.27;8.57;;;;;;;23.53;55.26;101236.53;5039416;28;20049;-65
2021/07/03 08:08:43;;;;;;;15.88;8.98;;;;;;;23.70;54.92;101243.41;5055011;28;20053;-65
2021/07/03 08:11:09;;;;;;;16.50;7.90;;;;;;;23.79;53.51;101234.81;5054359;28;20053;-65
2021/07/03 08:13:37;;;;;;;15.07;7.07;;;;;;;23.65;55.75;101240.19;5049802;28;20049;-65
2021/07/03 08:16:04;;;;;;;20.67;7.72;;;;;;;23.60;54.22;101237.84;5054473;28;20045;-65
2021/07/03 08:18:31;;;;;;;18.05;7.75;;;;;;;23.53;54.98;101241.84;5054082;28;20052;-65
2021/07/03 08:20:57;;;;;;;18.55;7.53;;;;;;;23.58;54.99;101237.06;5047772;28;20052;-65
2021/07/03 08:23:24;;;;;;;16.65;7.55;;;;;;;23.57;55.88;101233.59;5045964;28;20048;-65
2021/07/03 08:25:50;;;;;;;16.73;7.63;;;;;;;23.73;55.31;101229.88;5054212;28;20041;-64
2021/07/03 08:28:17;;;;;;;18.67;7.45;;;;;;;23.70;54.99;101224.81;5053333;28;20060;-64
2021/07/03 08:30:45;;;;;;;15.90;7.03;;;;;;;23.52;54.20;101230.38;5046172;28;20592;-65
2021/07/03 08:33:11;;;;;;;17.52;7.65;;;;;;;23.40;56.84;101218.75;5054469;28;20049;-65
2021/07/03 08:35:38;;;;;;;12.32;6.47;;;;;;;23.52;55.85;101224.22;5038062;28;20041;-65
2021/07/03 08:38:04;;;;;;;15.38;6.25;;;;;;;23.59;55.58;101221.06;5033942;28;20064;-65
2021/07/03 08:40:31;;;;;;;13.02;6.22;;;;;;;23.71;55.93;101219.38;5041473;28;20060;-66
2021/07/03 08:42:58;;;;;;;17.60;7.68;;;;;;;23.85;56.14;101221.09;5045290;28;20053;-63
2021/07/03 08:45:24;;;;;;;14.02;6.53;;;;;;;23.99;55.55;101214.88;5034082;28;20507;-62
2021/07/03 08:47:52;;;;;;;15.70;7.00;;;;;;;23.94;54.39;101214.31;5046184;28;20053;-64
2021/07/03 08:50:19;;;;;;;19.30;7.03;;;;;;;24.02;55.53;101214.66;5040552;28;20091;-66
2021/07/03 08:52:45;;;;;;;13.65;6.57;;;;;;;24.32;52.64;101212.63;5034190;28;20107;-64
2021/07/03 08:55:16;;;;;;;10.63;6.65;;;;;;;24.20;53.85;101217.88;5044259;28;20036;-65
2021/07/03 08:57:45;;;;;;;13.68;7.03;;;;;;;24.31;51.65;101213.59;5043851;28;20055;-65
2021/07/03 09:00:13;;;;;;;15.80;6.82;;;;;;;24.32;52.56;101210.84;5037610;28;20103;-64
2021/07/03 09:02:43;;;;;;;9.48;6.00;;;;;;;24.31;53.90;101206.47;5034191;28;20046;-65
2021/07/03 09:05:29;;;;;;;12.38;6.93;;;;;;;24.38;52.64;101212.22;5037074;28;20051;-65
2021/07/03 09:08:04;;;;;;;13.00;6.88;;;;;;;24.43;51.69;101202.09;5033600;28;20108;-65
2021/07/03 09:10:30;;;;;;;;;;;;;;;24.42;50.54;101197.72;5034375;28;20076;-66
2021/07/03 09:13:00;;;;;;;14.38;6.88;;;;;;;24.41;52.80;101196.03;5034094;28;19975;-66
2021/07/03 09:15:29;;;;;;;11.38;7.30;;;;;;;24.36;51.09;101196.34;5047818;28;20585;-66
2021/07/03 09:17:56;;;;;;;14.52;6.82;;;;;;;24.37;51.60;101194.56;5039438;28;20053;-66
2021/07/03 09:20:27;;;;;;;11.57;6.45;;;;;;;24.43;51.93;101194.13;5037750;28;20072;-66
2021/07/03 09:22:59;;;;;;;13.82;6.60;;;;;;;24.52;52.05;101190.81;5045510;28;20308;-66
2021/07/03 09:25:27;;;;;;;10.27;6.85;;;;;;;24.77;50.68;101186.44;5049292;28;20041;-66
2021/07/03 09:27:54;;;;;;;11.48;6.72;;;;;;;24.69;51.74;101180.81;5053286;28;20136;-65
2021/07/03 09:30:22;;;;;;;10.13;6.63;;;;;;;24.69;51.54;101178.16;5038917;28;20049;-66
2021/07/03 09:32:52;;;;;;;9.88;6.90;;;;;;;24.63;50.16;101183.88;5041419;28;20533;-65
2021/07/03 09:35:20;;;;;;;8.55;6.38;;;;;;;24.42;48.94;101191.56;5033367;28;20511;-65
2021/07/03 09:37:48;;;;;;;10.13;6.85;;;;;;;24.34;49.45;101192.97;5036831;28;20139;-65
2021/07/03 09:40:16;;;;;;;11.02;7.30;;;;;;;24.37;51.95;101194.56;5052636;28;20533;-65
2021/07/03 09:42:43;;;;;;;12.75;6.38;;;;;;;24.61;51.13;101194.63;5046231;28;20049;-63
2021/07/03 09:45:12;;;;;;;12.23;6.53;;;;;;;24.77;51.14;101197.06;5034146;28;20060;-63
2021/07/03 09:47:39;;;;;;;11.85;6.00;;;;;;;24.93;47.31;101194.16;5033666;28;20045;-64
2021/07/03 09:50:09;;;;;;;9.60;5.55;;;;;;;24.80;47.25;101196.00;5041064;28;20107;-65
2021/07/03 09:52:35;;;;;;;9.85;5.43;;;;;;;24.73;48.99;101189.41;5032968;28;20050;-64
2021/07/03 09:55:05;;;;;;;10.45;5.90;;;;;;;24.91;49.23;101192.53;5041610;28;20513;-64
2021/07/03 09:57:35;;;;;;;8.48;5.32;;;;;;;24.97;48.93;101181.47;5038617;28;20096;-64
2021/07/03 10:00:02;;;;;;;7.57;5.40;;;;;;;25.02;47.27;101187.28;5032458;28;20046;-63
2021/07/03 10:02:29;;;;;;;10.20;5.93;;;;;;;25.17;48.03;101181.81;5032931;28;20046;-65
2021/07/03 10:04:56;;;;;;;11.25;5.72;;;;;;;25.19;49.41;101186.03;5034985;28;20057;-65
2021/07/03 10:07:25;;;;;;;10.02;6.32;;;;;;;25.42;47.59;101180.84;5049652;28;20049;-66
2021/07/03 10:09:55;;;;;;;10.45;5.97;;;;;;;25.40;47.57;101183.63;5032559;28;20053;-65
2021/07/03 10:12:27;;;;;;;9.85;6.00;;;;;;;25.42;47.35;101181.69;5036663;28;20514;-65
2021/07/03 10:14:54;;;;;;;10.32;5.72;;;;;;;25.37;49.74;101173.19;5032861;28;20049;-67
2021/07/03 10:17:25;;;;;;;7.80;5.28;;;;;;;25.33;48.30;101182.34;5032546;28;20046;-65
2021/07/03 10:19:52;;;;;;;9.95;5.50;;;;;;;25.39;49.42;101187.22;5072945;22;20059;-68
2021/07/03 10:22:20;;;;;;;9.05;5.47;;;;;;;25.69;46.69;101179.72;5070226;28;20063;-67
2021/07/03 10:24:50;;;;;;;9.20;4.88;;;;;;;25.66;46.91;101175.47;5090829;28;20511;-68
2021/07/03 10:27:19;;;;;;;10.52;6.07;;;;;;;25.77;46.87;101167.50;5090508;28;20091;-65
2021/07/03 10:29:47;;;;;;;10.25;5.90;;;;;;;25.80;44.44;101171.75;5090835;28;20071;-68
2021/07/03 10:32:22;;;;;;;9.63;5.38;;;;;;;25.63;44.29;101175.69;5083220;28;20378;-68
2021/07/03 10:34:49;;;;;;;7.80;5.10;;;;;;;25.44;45.00;101171.78;5052142;28;20414;-67
2021/07/03 10:37:18;;;;;;;9.10;5.20;;;;;;;25.33;45.64;101161.03;5051767;28;20056;-68
2021/07/03 10:39:45;;;;;;;9.43;5.63;;;;;;;25.38;48.68;101160.69;5060699;28;20076;-68
2021/07/03 10:42:11;;;;;;;10.95;6.03;;;;;;;25.61;49.83;101161.63;5071771;28;20158;-68
2021/07/03 10:44:40;;;;;;;9.75;6.28;;;;;;;25.80;47.08;101161.09;5055018;28;20049;-68
2021/07/03 10:47:10;;;;;;;11.98;5.60;;;;;;;25.79;45.54;101155.88;5066236;28;20080;-69
2021/07/03 10:49:38;;;;;;;10.55;7.03;;;;;;;25.58;45.40;101153.91;5063652;28;20044;-68
2021/07/03 10:52:12;;;;;;;11.07;6.00;;;;;;;25.30;46.15;101146.16;5051837;28;20075;-69
2021/07/03 10:54:39;;;;;;;11.25;5.70;;;;;;;25.08;46.60;101141.59;5057394;28;20075;-68
2021/07/03 10:57:08;;;;;;;10.25;5.90;;;;;;;25.06;48.04;101138.19;5069006;28;20048;-68
2021/07/03 10:59:37;;;;;;;11.27;5.65;;;;;;;25.07;45.95;101139.91;5059173;28;20051;-68
2021/07/03 11:02:09;;;;;;;11.45;6.20;;;;;;;25.10;46.37;101138.81;5070931;28;20582;-67
2021/07/03 11:04:47;;;;;;;9.00;5.65;;;;;;;25.43;48.24;101129.28;5063186;28;20147;-67
2021/07/03 11:07:14;;;;;;;9.93;6.10;;;;;;;25.41;46.15;101132.03;5050767;28;20052;-67
2021/07/03 11:09:41;;;;;;;8.95;5.97;;;;;;;25.35;46.27;101127.16;5051909;28;20057;-66
2021/07/03 11:12:15;;;;;;;10.55;6.30;;;;;;;25.50;47.31;101121.69;5050901;28;20055;-67